sensor_id;sensor_type;location;lat;lon;timestamp;P1;durP1;ratioP1;P2;durP2;ratioP2
36391;SDS011;22639;42.690;23.356;2022-11-20T00:01:27;8.07;;;6.10;;
36391;SDS011;22639;42.690;23.356;2022-11-20T00:03:53;7.50;;;5.95;;
36391;SDS011;22639;42.690;23.356;2022-11-20T00:06:19;6.85;;;6.00;;
36391;SDS011;22639;42.690;23.356;2022-11-20T00:08:45;6.03;;;4.88;;
36391;SDS011;22639;42.690;23.356;2022-11-20T00:11:15;6.95;;;5.80;;
36391;SDS011;22639;42.690;23.356;2022-11-20T00:13:41;6.80;;;4.45;;
36391;SDS011;22639;42.690;23.356;2022-11-20T00:16:07;5.20;;;4.15;;
36391;SDS011;22639;42.690;23.356;2022-11-20T00:18:32;5.85;;;4.20;;
36391;SDS011;22639;42.690;23.356;2022-11-20T00:21:01;5.47;;;4.60;;
36391;SDS011;22639;42.690;23.356;2022-11-20T00:23:27;5.88;;;4.63;;
36391;SDS011;22639;42.690;23.356;2022-11-20T00:25:52;10.63;;;5.20;;
36391;SDS011;22639;42.690;23.356;2022-11-20T00:28:17;5.38;;;4.07;;
36391;SDS011;22639;42.690;23.356;2022-11-20T00:30:42;6.22;;;4.38;;
36391;SDS011;22639;42.690;23.356;2022-11-20T00:33:08;6.70;;;4.13;;
36391;SDS011;22639;42.690;23.356;2022-11-20T00:35:33;3.97;;;3.25;;
36391;SDS011;22639;42.690;23.356;2022-11-20T00:37:58;2.75;;;2.33;;
36391;SDS011;22639;42.690;23.356;2022-11-20T00:40:23;3.97;;;2.60;;
36391;SDS011;22639;42.690;23.356;2022-11-20T00:42:48;3.10;;;2.80;;
36391;SDS011;22639;42.690;23.356;2022-11-20T00:45:14;5.43;;;3.22;;
36391;SDS011;22639;42.690;23.356;2022-11-20T00:47:39;5.63;;;3.22;;
36391;SDS011;22639;42.690;23.356;2022-11-20T00:50:04;5.90;;;2.47;;
36391;SDS011;22639;42.690;23.356;2022-11-20T00:52:30;5.88;;;2.15;;
36391;SDS011;22639;42.690;23.356;2022-11-20T00:54:55;2.03;;;1.40;;
36391;SDS011;22639;42.690;23.356;2022-11-20T00:57:20;1.55;;;1.45;;
36391;SDS011;22639;42.690;23.356;2022-11-20T00:59:46;6.07;;;2.95;;
36391;SDS011;22639;42.690;23.356;2022-11-20T01:02:14;1.58;;;1.15;;
36391;SDS011;22639;42.690;23.356;2022-11-20T01:04:41;6.15;;;3.00;;
36391;SDS011;22639;42.690;23.356;2022-11-20T01:07:06;6.15;;;2.58;;
36391;SDS011;22639;42.690;23.356;2022-11-20T01:09:31;4.18;;;2.40;;
36391;SDS011;22639;42.690;23.356;2022-11-20T01:11:57;2.30;;;2.03;;
36391;SDS011;22639;42.690;23.356;2022-11-20T01:14:22;3.08;;;2.35;;
36391;SDS011;22639;42.690;23.356;2022-11-20T01:16:49;2.28;;;1.90;;
36391;SDS011;22639;42.690;23.356;2022-11-20T01:19:16;1.98;;;1.70;;
36391;SDS011;22639;42.690;23.356;2022-11-20T01:21:42;1.15;;;1.05;;
36391;SDS011;22639;42.690;23.356;2022-11-20T01:24:09;2.05;;;1.83;;
36391;SDS011;22639;42.690;23.356;2022-11-20T01:26:36;2.05;;;1.35;;
36391;SDS011;22639;42.690;23.356;2022-11-20T01:29:02;2.78;;;1.40;;
36391;SDS011;22639;42.690;23.356;2022-11-20T01:31:28;1.05;;;0.85;;
36391;SDS011;22639;42.690;23.356;2022-11-20T01:33:55;2.85;;;0.90;;
36391;SDS011;22639;42.690;23.356;2022-11-20T01:36:21;1.88;;;1.15;;
36391;SDS011;22639;42.690;23.356;2022-11-20T01:38:46;2.03;;;1.13;;
36391;SDS011;22639;42.690;23.356;2022-11-20T01:41:12;2.10;;;1.90;;
36391;SDS011;22639;42.690;23.356;2022-11-20T01:44:01;4.15;;;2.15;;
36391;SDS011;22639;42.690;23.356;2022-11-20T01:46:26;3.15;;;2.20;;
36391;SDS011;22639;42.690;23.356;2022-11-20T01:48:59;3.63;;;2.60;;
36391;SDS011;22639;42.690;23.356;2022-11-20T01:51:33;2.28;;;2.08;;
36391;SDS011;22639;42.690;23.356;2022-11-20T01:54:01;2.50;;;1.58;;
36391;SDS011;22639;42.690;23.356;2022-11-20T01:56:28;1.25;;;1.15;;
36391;SDS011;22639;42.690;23.356;2022-11-20T01:58:56;1.17;;;0.93;;
36391;SDS011;22639;42.690;23.356;2022-11-20T02:01:23;1.92;;;1.73;;
36391;SDS011;22639;42.690;23.356;2022-11-20T02:03:48;1.10;;;1.00;;
36391;SDS011;22639;42.690;23.356;2022-11-20T02:08:39;5.20;;;1.00;;
36391;SDS011;22639;42.690;23.356;2022-11-20T02:11:05;2.08;;;1.23;;
36391;SDS011;22639;42.690;23.356;2022-11-20T02:13:30;1.90;;;0.82;;
36391;SDS011;22639;42.690;23.356;2022-11-20T02:18:39;2.15;;;1.23;;
36391;SDS011;22639;42.690;23.356;2022-11-20T02:26:16;3.58;;;1.50;;
36391;SDS011;22639;42.690;23.356;2022-11-20T02:28:43;2.72;;;1.20;;
36391;SDS011;22639;42.690;23.356;2022-11-20T02:31:08;2.97;;;1.40;;
36391;SDS011;22639;42.690;23.356;2022-11-20T02:33:34;1.50;;;1.02;;
36391;SDS011;22639;42.690;23.356;2022-11-20T02:35:59;2.22;;;1.13;;
36391;SDS011;22639;42.690;23.356;2022-11-20T02:38:24;1.17;;;1.08;;
36391;SDS011;22639;42.690;23.356;2022-11-20T02:40:49;2.45;;;1.05;;
36391;SDS011;22639;42.690;23.356;2022-11-20T02:43:15;3.25;;;1.08;;
36391;SDS011;22639;42.690;23.356;2022-11-20T02:45:41;2.03;;;0.98;;
36391;SDS011;22639;42.690;23.356;2022-11-20T02:48:06;0.82;;;0.82;;
36391;SDS011;22639;42.690;23.356;2022-11-20T02:50:32;2.53;;;0.90;;
36391;SDS011;22639;42.690;23.356;2022-11-20T02:52:57;3.10;;;0.70;;
36391;SDS011;22639;42.690;23.356;2022-11-20T02:55:22;1.88;;;0.68;;
36391;SDS011;22639;42.690;23.356;2022-11-20T02:57:47;1.10;;;0.63;;
36391;SDS011;22639;42.690;23.356;2022-11-20T03:00:13;1.80;;;0.88;;
36391;SDS011;22639;42.690;23.356;2022-11-20T03:02:38;1.50;;;0.90;;
36391;SDS011;22639;42.690;23.356;2022-11-20T03:05:03;0.63;;;0.63;;
36391;SDS011;22639;42.690;23.356;2022-11-20T03:07:29;2.50;;;0.73;;
36391;SDS011;22639;42.690;23.356;2022-11-20T03:09:54;1.70;;;0.70;;
36391;SDS011;22639;42.690;23.356;2022-11-20T03:12:19;1.05;;;0.90;;
36391;SDS011;22639;42.690;23.356;2022-11-20T03:14:44;1.38;;;1.02;;
36391;SDS011;22639;42.690;23.356;2022-11-20T03:17:10;2.92;;;1.30;;
36391;SDS011;22639;42.690;23.356;2022-11-20T03:19:35;1.20;;;0.88;;
36391;SDS011;22639;42.690;23.356;2022-11-20T03:22:00;1.65;;;1.00;;
36391;SDS011;22639;42.690;23.356;2022-11-20T03:24:26;2.47;;;0.98;;
36391;SDS011;22639;42.690;23.356;2022-11-20T03:26:51;3.33;;;0.80;;
36391;SDS011;22639;42.690;23.356;2022-11-20T03:29:16;1.45;;;1.08;;
36391;SDS011;22639;42.690;23.356;2022-11-20T03:31:41;1.40;;;1.05;;
36391;SDS011;22639;42.690;23.356;2022-11-20T03:34:07;1.80;;;1.00;;
36391;SDS011;22639;42.690;23.356;2022-11-20T03:36:33;1.85;;;0.80;;
36391;SDS011;22639;42.690;23.356;2022-11-20T03:38:58;1.13;;;0.82;;
36391;SDS011;22639;42.690;23.356;2022-11-20T03:41:27;4.68;;;1.77;;
36391;SDS011;22639;42.690;23.356;2022-11-20T03:46:18;0.80;;;0.80;;
36391;SDS011;22639;42.690;23.356;2022-11-20T03:48:43;2.83;;;0.80;;
36391;SDS011;22639;42.690;23.356;2022-11-20T03:51:13;1.15;;;1.05;;
36391;SDS011;22639;42.690;23.356;2022-11-20T03:53:39;2.20;;;0.90;;
36391;SDS011;22639;42.690;23.356;2022-11-20T03:56:05;1.98;;;1.42;;
36391;SDS011;22639;42.690;23.356;2022-11-20T03:58:30;1.77;;;0.73;;
36391;SDS011;22639;42.690;23.356;2022-11-20T04:00:56;0.75;;;0.70;;
36391;SDS011;22639;42.690;23.356;2022-11-20T04:03:21;1.90;;;1.00;;
36391;SDS011;22639;42.690;23.356;2022-11-20T04:05:46;1.80;;;1.15;;
36391;SDS011;22639;42.690;23.356;2022-11-20T04:08:14;0.93;;;0.82;;
36391;SDS011;22639;42.690;23.356;2022-11-20T04:10:39;1.52;;;1.05;;
36391;SDS011;22639;42.690;23.356;2022-11-20T04:13:05;1.35;;;0.80;;
36391;SDS011;22639;42.690;23.356;2022-11-20T04:15:30;1.77;;;0.90;;
36391;SDS011;22639;42.690;23.356;2022-11-20T04:17:55;3.53;;;0.85;;
36391;SDS011;22639;42.690;23.356;2022-11-20T04:20:21;1.20;;;0.90;;
36391;SDS011;22639;42.690;23.356;2022-11-20T04:22:46;2.22;;;1.42;;
36391;SDS011;22639;42.690;23.356;2022-11-20T04:25:11;2.75;;;0.82;;
36391;SDS011;22639;42.690;23.356;2022-11-20T04:27:36;5.00;;;2.38;;
36391;SDS011;22639;42.690;23.356;2022-11-20T04:30:02;4.20;;;1.70;;
36391;SDS011;22639;42.690;23.356;2022-11-20T04:32:27;2.75;;;2.17;;
36391;SDS011;22639;42.690;23.356;2022-11-20T04:34:52;2.92;;;1.30;;
36391;SDS011;22639;42.690;23.356;2022-11-20T04:37:18;1.65;;;1.15;;
36391;SDS011;22639;42.690;23.356;2022-11-20T04:39:43;2.88;;;1.00;;
36391;SDS011;22639;42.690;23.356;2022-11-20T04:42:09;0.63;;;0.50;;
36391;SDS011;22639;42.690;23.356;2022-11-20T04:44:53;1.58;;;0.73;;
36391;SDS011;22639;42.690;23.356;2022-11-20T04:47:18;2.90;;;0.90;;
36391;SDS011;22639;42.690;23.356;2022-11-20T04:49:43;0.77;;;0.70;;
36391;SDS011;22639;42.690;23.356;2022-11-20T04:52:08;0.95;;;0.50;;
36391;SDS011;22639;42.690;23.356;2022-11-20T04:54:34;1.90;;;0.68;;
36391;SDS011;22639;42.690;23.356;2022-11-20T04:56:59;1.92;;;0.88;;
36391;SDS011;22639;42.690;23.356;2022-11-20T04:59:24;2.42;;;1.10;;
36391;SDS011;22639;42.690;23.356;2022-11-20T05:01:49;1.10;;;1.00;;
36391;SDS011;22639;42.690;23.356;2022-11-20T05:04:14;1.83;;;0.80;;
36391;SDS011;22639;42.690;23.356;2022-11-20T05:06:40;5.43;;;4.93;;
36391;SDS011;22639;42.690;23.356;2022-11-20T05:09:05;1.58;;;0.80;;
36391;SDS011;22639;42.690;23.356;2022-11-20T05:11:31;1.60;;;1.30;;
36391;SDS011;22639;42.690;23.356;2022-11-20T05:13:57;1.30;;;1.10;;
36391;SDS011;22639;42.690;23.356;2022-11-20T05:16:23;2.58;;;0.88;;
36391;SDS011;22639;42.690;23.356;2022-11-20T05:18:49;0.80;;;0.68;;
36391;SDS011;22639;42.690;23.356;2022-11-20T05:21:14;1.63;;;1.00;;
36391;SDS011;22639;42.690;23.356;2022-11-20T05:23:40;2.03;;;1.02;;
36391;SDS011;22639;42.690;23.356;2022-11-20T05:26:07;1.42;;;0.90;;
36391;SDS011;22639;42.690;23.356;2022-11-20T05:28:32;1.40;;;1.00;;
36391;SDS011;22639;42.690;23.356;2022-11-20T05:31:10;2.60;;;1.10;;
36391;SDS011;22639;42.690;23.356;2022-11-20T05:33:36;1.30;;;0.82;;
36391;SDS011;22639;42.690;23.356;2022-11-20T05:36:04;2.35;;;1.10;;
36391;SDS011;22639;42.690;23.356;2022-11-20T05:38:29;1.08;;;0.90;;
36391;SDS011;22639;42.690;23.356;2022-11-20T05:40:54;0.98;;;0.88;;
36391;SDS011;22639;42.690;23.356;2022-11-20T05:43:20;2.50;;;0.65;;
36391;SDS011;22639;42.690;23.356;2022-11-20T05:45:54;1.13;;;0.88;;
36391;SDS011;22639;42.690;23.356;2022-11-20T05:48:20;2.35;;;0.90;;
36391;SDS011;22639;42.690;23.356;2022-11-20T05:50:45;2.83;;;1.52;;
36391;SDS011;22639;42.690;23.356;2022-11-20T05:53:10;1.70;;;1.52;;
36391;SDS011;22639;42.690;23.356;2022-11-20T05:55:36;2.70;;;1.35;;
36391;SDS011;22639;42.690;23.356;2022-11-20T05:58:01;1.27;;;1.05;;
36391;SDS011;22639;42.690;23.356;2022-11-20T06:00:26;2.05;;;1.10;;
36391;SDS011;22639;42.690;23.356;2022-11-20T06:02:51;1.50;;;1.13;;
36391;SDS011;22639;42.690;23.356;2022-11-20T06:05:16;2.15;;;0.95;;
36391;SDS011;22639;42.690;23.356;2022-11-20T06:07:42;1.80;;;1.10;;
36391;SDS011;22639;42.690;23.356;2022-11-20T06:10:07;2.03;;;1.00;;
36391;SDS011;22639;42.690;23.356;2022-11-20T06:12:32;1.85;;;1.10;;
36391;SDS011;22639;42.690;23.356;2022-11-20T06:14:58;0.73;;;0.70;;
36391;SDS011;22639;42.690;23.356;2022-11-20T06:17:23;4.13;;;1.27;;
36391;SDS011;22639;42.690;23.356;2022-11-20T06:19:50;1.58;;;0.88;;
36391;SDS011;22639;42.690;23.356;2022-11-20T06:22:23;2.00;;;0.60;;
36391;SDS011;22639;42.690;23.356;2022-11-20T06:24:49;3.72;;;1.17;;
36391;SDS011;22639;42.690;23.356;2022-11-20T06:27:14;3.25;;;1.05;;
36391;SDS011;22639;42.690;23.356;2022-11-20T06:29:39;1.67;;;1.25;;
36391;SDS011;22639;42.690;23.356;2022-11-20T06:32:04;2.80;;;1.20;;
36391;SDS011;22639;42.690;23.356;2022-11-20T06:34:30;2.08;;;0.93;;
36391;SDS011;22639;42.690;23.356;2022-11-20T06:36:55;1.60;;;1.15;;
36391;SDS011;22639;42.690;23.356;2022-11-20T06:39:20;1.42;;;1.15;;
36391;SDS011;22639;42.690;23.356;2022-11-20T06:41:45;1.73;;;1.15;;
36391;SDS011;22639;42.690;23.356;2022-11-20T06:44:11;2.22;;;1.30;;
36391;SDS011;22639;42.690;23.356;2022-11-20T06:46:36;4.65;;;1.13;;
36391;SDS011;22639;42.690;23.356;2022-11-20T06:49:01;1.80;;;1.13;;
36391;SDS011;22639;42.690;23.356;2022-11-20T06:51:27;1.88;;;1.27;;
36391;SDS011;22639;42.690;23.356;2022-11-20T06:53:52;1.92;;;1.13;;
36391;SDS011;22639;42.690;23.356;2022-11-20T06:56:18;0.93;;;0.80;;
36391;SDS011;22639;42.690;23.356;2022-11-20T06:58:43;1.20;;;1.05;;
36391;SDS011;22639;42.690;23.356;2022-11-20T07:01:12;3.88;;;1.05;;
36391;SDS011;22639;42.690;23.356;2022-11-20T07:03:37;2.40;;;0.90;;
36391;SDS011;22639;42.690;23.356;2022-11-20T07:06:03;1.17;;;0.90;;
36391;SDS011;22639;42.690;23.356;2022-11-20T07:08:28;1.83;;;1.02;;
36391;SDS011;22639;42.690;23.356;2022-11-20T07:11:01;1.60;;;1.00;;
36391;SDS011;22639;42.690;23.356;2022-11-20T07:13:27;1.17;;;0.85;;
36391;SDS011;22639;42.690;23.356;2022-11-20T07:15:52;0.80;;;0.80;;
36391;SDS011;22639;42.690;23.356;2022-11-20T07:18:17;3.42;;;0.80;;
36391;SDS011;22639;42.690;23.356;2022-11-20T07:20:43;2.88;;;1.77;;
36391;SDS011;22639;42.690;23.356;2022-11-20T07:23:08;1.60;;;0.90;;
36391;SDS011;22639;42.690;23.356;2022-11-20T07:25:33;1.83;;;0.98;;
36391;SDS011;22639;42.690;23.356;2022-11-20T07:27:58;1.90;;;0.90;;
36391;SDS011;22639;42.690;23.356;2022-11-20T07:30:24;2.83;;;0.80;;
36391;SDS011;22639;42.690;23.356;2022-11-20T07:32:53;2.13;;;1.10;;
36391;SDS011;22639;42.690;23.356;2022-11-20T07:35:19;3.15;;;0.88;;
36391;SDS011;22639;42.690;23.356;2022-11-20T07:37:44;2.55;;;0.95;;
36391;SDS011;22639;42.690;23.356;2022-11-20T07:40:11;0.70;;;0.68;;
36391;SDS011;22639;42.690;23.356;2022-11-20T07:42:38;2.53;;;1.75;;
36391;SDS011;22639;42.690;23.356;2022-11-20T07:45:07;2.38;;;1.42;;
36391;SDS011;22639;42.690;23.356;2022-11-20T07:47:36;1.45;;;1.17;;
36391;SDS011;22639;42.690;23.356;2022-11-20T07:50:04;3.45;;;1.15;;
36391;SDS011;22639;42.690;23.356;2022-11-20T07:52:30;2.35;;;1.67;;
36391;SDS011;22639;42.690;23.356;2022-11-20T07:54:56;4.28;;;1.20;;
36391;SDS011;22639;42.690;23.356;2022-11-20T07:57:21;1.55;;;1.42;;
36391;SDS011;22639;42.690;23.356;2022-11-20T07:59:47;4.97;;;1.95;;
36391;SDS011;22639;42.690;23.356;2022-11-20T08:02:15;5.03;;;1.63;;
36391;SDS011;22639;42.690;23.356;2022-11-20T08:04:40;2.08;;;1.35;;
36391;SDS011;22639;42.690;23.356;2022-11-20T08:07:05;2.55;;;1.10;;
36391;SDS011;22639;42.690;23.356;2022-11-20T08:09:31;2.97;;;1.30;;
36391;SDS011;22639;42.690;23.356;2022-11-20T08:11:56;2.17;;;1.02;;
36391;SDS011;22639;42.690;23.356;2022-11-20T08:14:40;2.42;;;1.02;;
36391;SDS011;22639;42.690;23.356;2022-11-20T08:17:05;3.63;;;1.30;;
36391;SDS011;22639;42.690;23.356;2022-11-20T08:19:30;3.38;;;1.58;;
36391;SDS011;22639;42.690;23.356;2022-11-20T08:21:56;1.10;;;0.80;;
36391;SDS011;22639;42.690;23.356;2022-11-20T08:24:21;5.32;;;1.65;;
36391;SDS011;22639;42.690;23.356;2022-11-20T08:26:46;3.88;;;1.35;;
36391;SDS011;22639;42.690;23.356;2022-11-20T08:29:11;2.53;;;1.63;;
36391;SDS011;22639;42.690;23.356;2022-11-20T08:31:37;2.67;;;1.30;;
36391;SDS011;22639;42.690;23.356;2022-11-20T08:34:02;3.40;;;1.80;;
36391;SDS011;22639;42.690;23.356;2022-11-20T08:36:28;4.25;;;2.33;;
36391;SDS011;22639;42.690;23.356;2022-11-20T08:38:54;3.97;;;2.45;;
36391;SDS011;22639;42.690;23.356;2022-11-20T08:41:20;3.25;;;2.05;;
36391;SDS011;22639;42.690;23.356;2022-11-20T08:43:52;8.70;;;4.70;;
36391;SDS011;22639;42.690;23.356;2022-11-20T08:46:18;2.90;;;2.58;;
36391;SDS011;22639;42.690;23.356;2022-11-20T08:48:43;5.93;;;2.28;;
36391;SDS011;22639;42.690;23.356;2022-11-20T08:51:09;5.20;;;2.60;;
36391;SDS011;22639;42.690;23.356;2022-11-20T08:53:35;5.60;;;2.80;;
36391;SDS011;22639;42.690;23.356;2022-11-20T08:56:00;7.03;;;2.83;;
36391;SDS011;22639;42.690;23.356;2022-11-20T08:58:26;5.25;;;3.08;;
36391;SDS011;22639;42.690;23.356;2022-11-20T09:00:52;4.07;;;2.33;;
36391;SDS011;22639;42.690;23.356;2022-11-20T09:03:18;3.08;;;1.80;;
36391;SDS011;22639;42.690;23.356;2022-11-20T09:05:43;14.02;;;9.65;;
36391;SDS011;22639;42.690;23.356;2022-11-20T09:08:08;4.75;;;3.25;;
36391;SDS011;22639;42.690;23.356;2022-11-20T09:10:34;3.55;;;1.85;;
36391;SDS011;22639;42.690;23.356;2022-11-20T09:12:59;3.58;;;1.80;;
36391;SDS011;22639;42.690;23.356;2022-11-20T09:15:25;3.50;;;2.40;;
36391;SDS011;22639;42.690;23.356;2022-11-20T09:17:54;4.20;;;2.50;;
36391;SDS011;22639;42.690;23.356;2022-11-20T09:20:20;6.80;;;2.03;;
36391;SDS011;22639;42.690;23.356;2022-11-20T09:22:45;5.53;;;2.58;;
36391;SDS011;22639;42.690;23.356;2022-11-20T09:25:10;5.68;;;2.85;;
36391;SDS011;22639;42.690;23.356;2022-11-20T09:27:36;2.13;;;1.40;;
36391;SDS011;22639;42.690;23.356;2022-11-20T09:30:01;1.45;;;1.35;;
36391;SDS011;22639;42.690;23.356;2022-11-20T09:35:11;2.70;;;1.40;;
36391;SDS011;22639;42.690;23.356;2022-11-20T09:37:36;2.85;;;1.20;;
36391;SDS011;22639;42.690;23.356;2022-11-20T09:40:02;2.67;;;1.27;;
36391;SDS011;22639;42.690;23.356;2022-11-20T09:45:18;1.55;;;1.33;;
36391;SDS011;22639;42.690;23.356;2022-11-20T09:55:29;3.40;;;2.70;;
36391;SDS011;22639;42.690;23.356;2022-11-20T09:57:55;2.42;;;2.22;;
36391;SDS011;22639;42.690;23.356;2022-11-20T10:00:22;4.50;;;3.35;;
36391;SDS011;22639;42.690;23.356;2022-11-20T10:05:35;5.03;;;3.42;;
36391;SDS011;22639;42.690;23.356;2022-11-20T10:08:19;6.43;;;4.32;;
36391;SDS011;22639;42.690;23.356;2022-11-20T10:10:47;10.57;;;8.55;;
36391;SDS011;22639;42.690;23.356;2022-11-20T10:20:45;6.55;;;3.10;;
36391;SDS011;22639;42.690;23.356;2022-11-20T10:25:39;6.32;;;3.70;;
36391;SDS011;22639;42.690;23.356;2022-11-20T10:30:37;8.13;;;4.57;;
36391;SDS011;22639;42.690;23.356;2022-11-20T10:33:04;5.60;;;3.65;;
36391;SDS011;22639;42.690;23.356;2022-11-20T10:38:00;6.22;;;4.22;;
36391;SDS011;22639;42.690;23.356;2022-11-20T10:40:41;7.25;;;4.43;;
36391;SDS011;22639;42.690;23.356;2022-11-20T10:43:10;7.13;;;4.35;;
36391;SDS011;22639;42.690;23.356;2022-11-20T10:45:49;7.13;;;3.60;;
36391;SDS011;22639;42.690;23.356;2022-11-20T10:48:16;6.03;;;4.38;;
36391;SDS011;22639;42.690;23.356;2022-11-20T10:56:05;22.13;;;15.20;;
36391;SDS011;22639;42.690;23.356;2022-11-20T10:58:45;15.35;;;11.38;;
36391;SDS011;22639;42.690;23.356;2022-11-20T11:01:14;13.45;;;8.75;;
36391;SDS011;22639;42.690;23.356;2022-11-20T11:03:41;9.02;;;5.95;;
36391;SDS011;22639;42.690;23.356;2022-11-20T11:06:10;9.85;;;5.85;;
36391;SDS011;22639;42.690;23.356;2022-11-20T11:08:37;7.85;;;5.95;;
36391;SDS011;22639;42.690;23.356;2022-11-20T11:13:48;4.22;;;3.60;;
36391;SDS011;22639;42.690;23.356;2022-11-20T11:16:24;4.75;;;2.20;;
36391;SDS011;22639;42.690;23.356;2022-11-20T11:18:50;5.60;;;2.53;;
36391;SDS011;22639;42.690;23.356;2022-11-20T11:21:22;7.75;;;1.92;;
36391;SDS011;22639;42.690;23.356;2022-11-20T11:23:57;3.03;;;0.95;;
36391;SDS011;22639;42.690;23.356;2022-11-20T11:26:23;3.97;;;1.20;;
36391;SDS011;22639;42.690;23.356;2022-11-20T11:28:56;2.60;;;0.80;;
36391;SDS011;22639;42.690;23.356;2022-11-20T11:31:22;2.10;;;1.20;;
36391;SDS011;22639;42.690;23.356;2022-11-20T11:33:48;2.10;;;1.15;;
36391;SDS011;22639;42.690;23.356;2022-11-20T11:36:18;2.22;;;0.85;;
36391;SDS011;22639;42.690;23.356;2022-11-20T11:38:44;2.47;;;1.00;;
36391;SDS011;22639;42.690;23.356;2022-11-20T11:41:12;1.97;;;1.20;;
36391;SDS011;22639;42.690;23.356;2022-11-20T11:43:40;1.00;;;0.60;;
36391;SDS011;22639;42.690;23.356;2022-11-20T11:46:32;1.73;;;1.20;;
36391;SDS011;22639;42.690;23.356;2022-11-20T11:51:26;1.60;;;1.27;;
36391;SDS011;22639;42.690;23.356;2022-11-20T11:53:51;3.77;;;1.63;;
36391;SDS011;22639;42.690;23.356;2022-11-20T11:56:17;1.33;;;1.03;;
36391;SDS011;22639;42.690;23.356;2022-11-20T11:58:44;3.50;;;1.13;;
36391;SDS011;22639;42.690;23.356;2022-11-20T12:03:42;2.88;;;0.88;;
36391;SDS011;22639;42.690;23.356;2022-11-20T12:06:14;5.90;;;1.13;;
36391;SDS011;22639;42.690;23.356;2022-11-20T12:08:44;3.42;;;1.10;;
36391;SDS011;22639;42.690;23.356;2022-11-20T12:11:15;4.00;;;1.58;;
36391;SDS011;22639;42.690;23.356;2022-11-20T12:13:53;1.58;;;1.38;;
36391;SDS011;22639;42.690;23.356;2022-11-20T12:16:19;1.88;;;0.98;;
36391;SDS011;22639;42.690;23.356;2022-11-20T12:18:46;0.90;;;0.65;;
36391;SDS011;22639;42.690;23.356;2022-11-20T12:21:20;1.98;;;1.23;;
36391;SDS011;22639;42.690;23.356;2022-11-20T12:26:29;1.48;;;0.73;;
36391;SDS011;22639;42.690;23.356;2022-11-20T12:39:22;1.67;;;0.45;;
36391;SDS011;22639;42.690;23.356;2022-11-20T12:44:57;1.33;;;0.80;;
36391;SDS011;22639;42.690;23.356;2022-11-20T12:57:52;11.85;;;5.97;;
36391;SDS011;22639;42.690;23.356;2022-11-20T13:00:22;6.82;;;3.95;;
36391;SDS011;22639;42.690;23.356;2022-11-20T13:03:13;3.58;;;2.10;;
36391;SDS011;22639;42.690;23.356;2022-11-20T13:08:55;9.73;;;3.97;;
36391;SDS011;22639;42.690;23.356;2022-11-20T13:11:05;6.70;;;3.55;;
36391;SDS011;22639;42.690;23.356;2022-11-20T13:18:40;2.78;;;2.50;;
36391;SDS011;22639;42.690;23.356;2022-11-20T13:21:14;3.43;;;2.67;;
36391;SDS011;22639;42.690;23.356;2022-11-20T13:23:39;6.20;;;2.50;;
36391;SDS011;22639;42.690;23.356;2022-11-20T13:26:05;4.17;;;2.33;;
36391;SDS011;22639;42.690;23.356;2022-11-20T13:28:31;4.05;;;2.38;;
36391;SDS011;22639;42.690;23.356;2022-11-20T13:30:57;3.17;;;1.83;;
36391;SDS011;22639;42.690;23.356;2022-11-20T13:35:55;2.53;;;1.80;;
36391;SDS011;22639;42.690;23.356;2022-11-20T13:38:21;7.93;;;3.33;;
36391;SDS011;22639;42.690;23.356;2022-11-20T13:40:59;7.80;;;3.05;;
36391;SDS011;22639;42.690;23.356;2022-11-20T13:43:44;3.00;;;2.30;;
36391;SDS011;22639;42.690;23.356;2022-11-20T13:46:11;3.63;;;1.98;;
36391;SDS011;22639;42.690;23.356;2022-11-20T13:48:41;4.75;;;1.42;;
36391;SDS011;22639;42.690;23.356;2022-11-20T13:51:35;4.85;;;3.63;;
36391;SDS011;22639;42.690;23.356;2022-11-20T13:59:20;6.78;;;4.43;;
36391;SDS011;22639;42.690;23.356;2022-11-20T14:01:50;7.00;;;4.45;;
36391;SDS011;22639;42.690;23.356;2022-11-20T14:04:17;6.65;;;4.53;;
36391;SDS011;22639;42.690;23.356;2022-11-20T14:06:43;7.78;;;4.20;;
36391;SDS011;22639;42.690;23.356;2022-11-20T14:09:10;7.63;;;4.10;;
36391;SDS011;22639;42.690;23.356;2022-11-20T14:11:36;7.78;;;4.40;;
36391;SDS011;22639;42.690;23.356;2022-11-20T14:14:15;8.25;;;3.83;;
36391;SDS011;22639;42.690;23.356;2022-11-20T14:16:41;7.65;;;4.40;;
36391;SDS011;22639;42.690;23.356;2022-11-20T14:21:48;7.20;;;4.53;;
36391;SDS011;22639;42.690;23.356;2022-11-20T14:24:14;7.45;;;3.88;;
36391;SDS011;22639;42.690;23.356;2022-11-20T14:26:43;6.05;;;4.43;;
36391;SDS011;22639;42.690;23.356;2022-11-20T14:29:13;7.05;;;4.07;;
36391;SDS011;22639;42.690;23.356;2022-11-20T14:31:39;11.18;;;4.30;;
36391;SDS011;22639;42.690;23.356;2022-11-20T14:34:05;6.43;;;5.65;;
36391;SDS011;22639;42.690;23.356;2022-11-20T14:36:30;7.30;;;5.43;;
36391;SDS011;22639;42.690;23.356;2022-11-20T14:38:56;7.63;;;5.32;;
36391;SDS011;22639;42.690;23.356;2022-11-20T14:41:22;10.77;;;7.70;;
36391;SDS011;22639;42.690;23.356;2022-11-20T14:43:56;11.50;;;7.15;;
36391;SDS011;22639;42.690;23.356;2022-11-20T14:46:22;10.35;;;6.85;;
36391;SDS011;22639;42.690;23.356;2022-11-20T14:48:51;9.73;;;6.90;;
36391;SDS011;22639;42.690;23.356;2022-11-20T14:51:32;12.98;;;7.15;;
36391;SDS011;22639;42.690;23.356;2022-11-20T14:54:10;12.88;;;8.65;;
36391;SDS011;22639;42.690;23.356;2022-11-20T14:56:35;11.30;;;6.45;;
36391;SDS011;22639;42.690;23.356;2022-11-20T14:59:01;10.48;;;7.13;;
36391;SDS011;22639;42.690;23.356;2022-11-20T15:01:31;10.98;;;6.70;;
36391;SDS011;22639;42.690;23.356;2022-11-20T15:04:14;9.68;;;6.53;;
36391;SDS011;22639;42.690;23.356;2022-11-20T15:06:49;12.10;;;6.95;;
36391;SDS011;22639;42.690;23.356;2022-11-20T15:09:14;11.38;;;6.70;;
36391;SDS011;22639;42.690;23.356;2022-11-20T15:11:40;9.18;;;6.55;;
36391;SDS011;22639;42.690;23.356;2022-11-20T15:14:15;8.77;;;5.88;;
36391;SDS011;22639;42.690;23.356;2022-11-20T15:16:40;9.23;;;5.22;;
36391;SDS011;22639;42.690;23.356;2022-11-20T15:19:09;8.18;;;3.97;;
36391;SDS011;22639;42.690;23.356;2022-11-20T15:21:37;9.25;;;4.78;;
36391;SDS011;22639;42.690;23.356;2022-11-20T15:24:02;6.03;;;4.15;;
36391;SDS011;22639;42.690;23.356;2022-11-20T15:26:28;6.13;;;4.22;;
36391;SDS011;22639;42.690;23.356;2022-11-20T15:28:53;5.57;;;3.58;;
36391;SDS011;22639;42.690;23.356;2022-11-20T15:31:20;2.88;;;2.58;;
36391;SDS011;22639;42.690;23.356;2022-11-20T15:33:46;4.18;;;3.55;;
36391;SDS011;22639;42.690;23.356;2022-11-20T15:36:12;4.18;;;3.30;;
36391;SDS011;22639;42.690;23.356;2022-11-20T15:38:38;6.97;;;3.42;;
36391;SDS011;22639;42.690;23.356;2022-11-20T15:41:03;4.97;;;3.13;;
36391;SDS011;22639;42.690;23.356;2022-11-20T15:43:28;5.57;;;3.07;;
36391;SDS011;22639;42.690;23.356;2022-11-20T15:45:59;3.88;;;2.70;;
36391;SDS011;22639;42.690;23.356;2022-11-20T15:48:29;5.03;;;3.80;;
36391;SDS011;22639;42.690;23.356;2022-11-20T15:50:58;8.10;;;3.90;;
36391;SDS011;22639;42.690;23.356;2022-11-20T15:53:24;5.20;;;3.60;;
36391;SDS011;22639;42.690;23.356;2022-11-20T15:55:53;5.90;;;3.03;;
36391;SDS011;22639;42.690;23.356;2022-11-20T15:58:18;2.00;;;1.40;;
36391;SDS011;22639;42.690;23.356;2022-11-20T16:00:43;2.73;;;1.67;;
36391;SDS011;22639;42.690;23.356;2022-11-20T16:03:12;4.47;;;2.03;;
36391;SDS011;22639;42.690;23.356;2022-11-20T16:05:38;6.67;;;2.03;;
36391;SDS011;22639;42.690;23.356;2022-11-20T16:08:03;5.07;;;2.27;;
36391;SDS011;22639;42.690;23.356;2022-11-20T16:10:29;6.10;;;2.87;;
36391;SDS011;22639;42.690;23.356;2022-11-20T16:12:54;3.50;;;2.80;;
36391;SDS011;22639;42.690;23.356;2022-11-20T16:15:38;5.83;;;2.80;;